Home > Products > Valid Products > TAF

000
FTUS45 KPIH 040131 AAA
TAFIDA
TAF AMD
KIDA 040131Z 0402/0424 25011KT P6SM VCTS SCT090 BKN120CB
      TEMPO 0402/0404 VRB20G35KT 6SM -TSRA
     FM040500 VRB06KT P6SM SCT120 BKN150
     FM041900 21018G28KT P6SM SCT150=



000
FTUS45 KPIH 040017 AAA
TAFPIH
TAF AMD
KPIH 040017Z 0400/0424 28011KT P6SM VCTS SCT060 BKN120CB
      TEMPO 0400/0403 VRB25G45KT 6SM -TSRA
     FM040500 21008KT P6SM SCT120 BKN150
     FM041800 20018G28KT P6SM SCT150=



000
FTUS45 KPIH 040017 AAA
TAFPIH
TAF AMD
KPIH 040017Z 0400/0424 28011KT P6SM VCTS SCT060 BKN120CB
      TEMPO 0400/0403 VRB25G45KT 6SM -TSRA
     FM040500 21008KT P6SM SCT120 BKN150
     FM041800 20018G28KT P6SM SCT150=



000
FTUS45 KPIH 032320
TAFIDA
TAF
KIDA 032320Z 0400/0424 25011KT P6SM VCTS SCT090 BKN120CB
     FM040500 VRB06KT P6SM SCT120 BKN150
     FM041900 21018G28KT P6SM SCT150=



000
FTUS45 KPIH 032320
TAFPIH
TAF
KPIH 032320Z 0400/0424 28011KT P6SM VCTS SCT060 BKN120CB
     FM040500 21008KT P6SM SCT120 BKN150
     FM041800 20018G28KT P6SM SCT150=



000
FTUS45 KPIH 032320
TAFSUN
TAF
KSUN 032320Z 0400/0424 18010KT P6SM BKN120
      TEMPO 0400/0404 27010G020KT
     FM040400 31007KT P6SM VCSH BKN100
     FM041700 15007KT P6SM VCTS SCT070 BKN100CB
      AMD LTD TO CLD VIS AND WIND 0405/0413=



000
FTUS45 KPIH 032320
TAFBYI
TAF
KBYI 032320Z 0400/0424 28010KT P6SM VCTS SCT060 BKN120CB
     FM040300 23009KT P6SM SCT150
     FM041800 23010G20KT P6SM SCT120 BKN150=



000
FTUS45 KPIH 032210 AAA
TAFPIH
TAF AMD
KPIH 032210Z 0322/0418 28010G20KT P6SM VCTS SCT060 BKN120CB
     FM040500 21008KT P6SM VCSH SCT120 BKN150=



000
FTUS45 KPIH 031720
TAFIDA
TAF
KIDA 031720Z 0318/0418 21015G25KT P6SM SCT120
     FM032300 25010G20KT P6SM VCTS SCT090 BKN120CB
     FM040500 VRB06KT P6SM VCSH SCT120 BKN150=



000
FTUS45 KPIH 031720
TAFSUN
TAF
KSUN 031720Z 0318/0418 18010KT P6SM SCT120 BKN150
     FM040400 31007KT P6SM VCSH BKN110
     FM041700 15007KT P6SM VCTS SCT070 BKN100CB=



000
FTUS45 KPIH 031720
TAFBYI
TAF
KBYI 031720Z 0318/0418 28008KT P6SM SCT150 BKN250
     FM031900 29010G20KT P6SM SCT120 BKN150
     FM040200 23009KT P6SM SCT150=



000
FTUS45 KPIH 031720
TAFPIH
TAF
KPIH 031720Z 0318/0418 23011G22KT P6SM FEW050 BKN150 BKN250
     FM032300 26010G20KT P6SM VCTS SCT090 BKN120CB
     FM040500 21008KT P6SM VCSH SCT120 BKN150=



000
FTUS45 KPIH 031120
TAFBYI
TAF
KBYI 031120Z 0312/0412 28008KT P6SM SCT150 BKN250
     FM031900 29010G20KT P6SM VCTS SCT120 BKN150CB
     FM040200 23007KT P6SM SCT150=



000
FTUS45 KPIH 031120
TAFPIH
TAF
KPIH 031120Z 0312/0412 23011G22KT P6SM BKN150 BKN250
     FM032100 26010G20KT P6SM VCTS SCT090 BKN120CB
     FM040200 21008KT P6SM VCSH SCT120 BKN150=



000
FTUS45 KPIH 031120
TAFIDA
TAF
KIDA 031120Z 0312/0412 19010KT P6SM BKN150 BKN250
     FM031400 22015G25KT P6SM SCT120
     FM032200 25010G20KT P6SM VCTS SCT090 BKN120CB
     FM040300 VRB06KT P6SM VCSH SCT120 BKN150=



000
FTUS45 KPIH 031120
TAFSUN
TAF
KSUN 031120Z 0312/0412 31008KT P6SM SCT120 BKN200
     FM031700 18010KT P6SM SCT120 BKN150
     FM040400 31007KT P6SM SCT110 BKN150
      AMD LTD TO CLD VIS AND WIND TIL 031300=



000
FTUS45 KPIH 031120
TAFIDA
TAF
KIDA 031120Z 0312/0412 19010KT P6SM BKN150 BKN250
     FM031400 22015G25KT P6SM SCT120
     FM032200 25010G20KT P6SM VCTS SCT090 BKN120CB
     FM040300 VRB06KT P6SM VCSH SCT120 BKN150=



000
FTUS45 KPIH 031120
TAFBYI
TAF
KBYI 031120Z 0312/0412 28008KT P6SM SCT150 BKN250
     FM031900 29010G20KT P6SM VCTS SCT120 BKN150CB
     FM040200 23007KT P6SM SCT150=



000
FTUS45 KPIH 031120
TAFSUN
TAF
KSUN 031120Z 0312/0412 31008KT P6SM SCT120 BKN200
     FM031700 18010KT P6SM SCT120 BKN150
     FM040400 31007KT P6SM SCT110 BKN150
      AMD LTD TO CLD VIS AND WIND TIL 031300=



000
FTUS45 KPIH 031120
TAFPIH
TAF
KPIH 031120Z 0312/0412 23011G22KT P6SM BKN150 BKN250
     FM032100 26010G20KT P6SM VCTS SCT090 BKN120CB
     FM040200 21008KT P6SM VCSH SCT120 BKN150=



000
FTUS45 KPIH 030520
TAFSUN
TAF
KSUN 030520Z 0306/0406 30008KT P6SM SCT120 BKN150
     FM031700 18010KT P6SM SCT120 BKN150
     FM040400 31007KT P6SM SCT110 BKN150
      AMD LTD TO CLD VIS AND WIND TIL 031300=



000
FTUS45 KPIH 030520
TAFIDA
TAF
KIDA 030520Z 0306/0406 21010KT P6SM VCSH SCT070 BKN100
     FM031100 21009KT P6SM SCT100
     FM031400 22015G25KT P6SM SCT120
     FM032200 25010G20KT P6SM VCTS SCT090 BKN120CB
     FM040300 VRB06KT P6SM VCSH SCT120 BKN150=



000
FTUS45 KPIH 030520
TAFPIH
TAF
KPIH 030520Z 0306/0406 19010KT P6SM VCSH FEW120 BKN150
     FM031100 17012G22KT P6SM SCT150
     FM031400 23013G23KT P6SM SCT120
     FM032100 28010G20KT P6SM VCTS SCT090 BKN120CB
     FM040200 VRB06KT P6SM VCSH SCT120 BKN150=



000
FTUS45 KPIH 030520
TAFSUN
TAF
KSUN 030520Z 0306/0406 30008KT P6SM SCT120 BKN150
     FM031700 18010KT P6SM SCT120 BKN150
     FM040400 31007KT P6SM SCT110 BKN150
      AMD LTD TO CLD VIS AND WIND TIL 031300=



000
FTUS45 KPIH 030520
TAFIDA
TAF
KIDA 030520Z 0306/0406 21010KT P6SM VCSH SCT070 BKN100
     FM031100 21009KT P6SM SCT100
     FM031400 22015G25KT P6SM SCT120
     FM032200 25010G20KT P6SM VCTS SCT090 BKN120CB
     FM040300 VRB06KT P6SM VCSH SCT120 BKN150=



000
FTUS45 KPIH 030520
TAFBYI
TAF
KBYI 030520Z 0306/0406 VRB06KT P6SM SCT120 BKN150
     FM031300 23009KT P6SM SCT120
     FM031900 29010G20KT P6SM VCTS SCT120 BKN150CB
     FM040200 VRB06KT P6SM SCT150=



000
FTUS45 KPIH 030520
TAFPIH
TAF
KPIH 030520Z 0306/0406 19010KT P6SM VCSH FEW120 BKN150
     FM031100 17012G22KT P6SM SCT150
     FM031400 23013G23KT P6SM SCT120
     FM032100 28010G20KT P6SM VCTS SCT090 BKN120CB
     FM040200 VRB06KT P6SM VCSH SCT120 BKN150=



000
FTUS45 KPIH 030520
TAFBYI
TAF
KBYI 030520Z 0306/0406 VRB06KT P6SM SCT120 BKN150
     FM031300 23009KT P6SM SCT120
     FM031900 29010G20KT P6SM VCTS SCT120 BKN150CB
     FM040200 VRB06KT P6SM SCT150=



000
FTUS45 KPIH 022320
TAFIDA
TAF
KIDA 022320Z 0300/0324 24015G25KT P6SM SCT080
     FM030200 21010KT P6SM VCSH SCT070 BKN100
     FM031100 21009KT P6SM SCT100
     FM031400 22015G25KT P6SM SCT120
     FM032100 25010G20KT P6SM BKN120=



000
FTUS45 KPIH 022320
TAFPIH
TAF
KPIH 022320Z 0300/0324 27010KT P6SM SCT100
     FM030400 19010KT P6SM VCSH SCT070 BKN100
     FM031100 17012G22KT P6SM SCT100
     FM031400 23013G23KT P6SM SCT120
     FM032100 28010G20KT P6SM BKN120=



000
FTUS45 KPIH 022320
TAFBYI
TAF
KBYI 022320Z 0300/0324 VRB06KT P6SM SCT120
     FM031300 23009KT P6SM SCT120
     FM031700 29010G20KT P6SM BKN120=



000
FTUS45 KPIH 022320
TAFSUN
TAF
KSUN 022320Z 0300/0324 25010G20KT P6SM SCT150
     FM030300 30008KT P6SM SCT120 BKN150
     FM031700 18010KT P6SM SCT150
      AMD LTD TO CLD VIS AND WIND 0305/0313=



000
FTUS45 KPIH 022320
TAFBYI
TAF
KBYI 022320Z 0300/0324 VRB06KT P6SM SCT120
     FM031300 23009KT P6SM SCT120
     FM031700 29010G20KT P6SM BKN120=



000
FTUS45 KPIH 022320
TAFIDA
TAF
KIDA 022320Z 0300/0324 24015G25KT P6SM SCT080
     FM030200 21010KT P6SM VCSH SCT070 BKN100
     FM031100 21009KT P6SM SCT100
     FM031400 22015G25KT P6SM SCT120
     FM032100 25010G20KT P6SM BKN120=



000
FTUS45 KPIH 022320
TAFSUN
TAF
KSUN 022320Z 0300/0324 25010G20KT P6SM SCT150
     FM030300 30008KT P6SM SCT120 BKN150
     FM031700 18010KT P6SM SCT150
      AMD LTD TO CLD VIS AND WIND 0305/0313=



000
FTUS45 KPIH 022320
TAFPIH
TAF
KPIH 022320Z 0300/0324 27010KT P6SM SCT100
     FM030400 19010KT P6SM VCSH SCT070 BKN100
     FM031100 17012G22KT P6SM SCT100
     FM031400 23013G23KT P6SM SCT120
     FM032100 28010G20KT P6SM BKN120=



000
FTUS45 KPIH 022103 AAB
TAFSUN
TAF AMD
KSUN 022103Z 0221/0318 21010G20KT P6SM SCT150
     FM030300 30008KT P6SM FEW120=



000
FTUS45 KPIH 022103 AAB
TAFSUN
TAF AMD
KSUN 022103Z 0221/0318 21010G20KT P6SM SCT150
     FM030300 30008KT P6SM FEW120=



000
FTUS45 KPIH 022003 AAB
TAFPIH
TAF AMD
KPIH 022003Z 0220/0318 29009KT P6SM SCT120
     FM030400 20010KT P6SM VCSH SCT070 BKN100
     FM031100 21008KT P6SM SCT100=



000
FTUS45 KPIH 022002 AAA
TAFSUN
TAF AMD
KSUN 022002Z 0220/0318 14010KT P6SM SCT150
     FM022200 20010G20KT P6SM SCT150
     FM030300 30008KT P6SM FEW120=



000
FTUS45 KPIH 021720
TAFPIH
TAF
KPIH 021720Z 0218/0318 26014G23KT P6SM SCT120
     FM030400 20010KT P6SM VCSH SCT070 BKN100
     FM031100 21008KT P6SM SCT100=



000
FTUS45 KPIH 021720
TAFSUN
TAF
KSUN 021720Z 0218/0318 14010KT P6SM SCT150
     FM022000 20010G20KT P6SM SCT150
     FM030300 30008KT P6SM FEW120=



000
FTUS45 KPIH 021720
TAFPIH
TAF
KPIH 021720Z 0218/0318 26014G23KT P6SM SCT120
     FM030400 20010KT P6SM VCSH SCT070 BKN100
     FM031100 21008KT P6SM SCT100=



000
FTUS45 KPIH 021720
TAFIDA
TAF
KIDA 021720Z 0218/0318 22012KT P6SM FEW150
     FM021900 23018G30KT P6SM FEW150
     FM030200 19010KT P6SM VCSH SCT070 BKN100
     FM031200 21009KT P6SM SCT100=



000
FTUS45 KPIH 021720
TAFIDA
TAF
KIDA 021720Z 0218/0318 22012KT P6SM FEW150
     FM021900 23018G30KT P6SM FEW150
     FM030200 19010KT P6SM VCSH SCT070 BKN100
     FM031200 21009KT P6SM SCT100=



000
FTUS45 KPIH 021720
TAFSUN
TAF
KSUN 021720Z 0218/0318 14010KT P6SM SCT150
     FM022000 20010G20KT P6SM SCT150
     FM030300 30008KT P6SM FEW120=



000
FTUS45 KPIH 021720
TAFBYI
TAF
KBYI 021720Z 0218/0318 27011KT P6SM FEW150
     FM030200 19006KT P6SM BKN120=



000
FTUS45 KPIH 021720
TAFBYI
TAF
KBYI 021720Z 0218/0318 27011KT P6SM FEW150
     FM030200 19006KT P6SM BKN120=



000
FTUS45 KPIH 021602 AAC
TAFPIH
TAF AMD
KPIH 021602Z 0216/0312 25014G23KT P6SM SCT120
     FM030200 20010KT P6SM VCSH BKN100=



000
FTUS45 KPIH 021506 AAB
TAFPIH
TAF AMD
KPIH 021506Z 0215/0312 21011KT P6SM SCT120
     FM021900 23017G30KT P6SM FEW150
     FM030200 20010KT P6SM VCSH BKN100=



000
FTUS45 KPIH 021506 AAB
TAFPIH
TAF AMD
KPIH 021506Z 0215/0312 21011KT P6SM SCT120
     FM021900 23017G30KT P6SM FEW150
     FM030200 20010KT P6SM VCSH BKN100=



000
FTUS45 KPIH 021505 AAA
TAFIDA
TAF AMD
KIDA 021505Z 0215/0312 22011KT P6SM FEW150
     FM021900 23020G32KT P6SM FEW150
     FM030200 19010KT P6SM VCSH BKN100=



000
FTUS45 KPIH 021505 AAA
TAFIDA
TAF AMD
KIDA 021505Z 0215/0312 22011KT P6SM FEW150
     FM021900 23020G32KT P6SM FEW150
     FM030200 19010KT P6SM VCSH BKN100=



000
FTUS45 KPIH 021120
TAFPIH
TAF
KPIH 021120Z 0212/0312 18011G20KT P6SM FEW200
     FM021500 21010G20KT P6SM SCT120
     FM022000 23017G30KT P6SM FEW150
     FM030200 20010KT P6SM VCSH BKN100=



000
FTUS45 KPIH 021120
TAFBYI
TAF
KBYI 021120Z 0212/0312 22009KT P6SM FEW200
     FM021800 27011KT P6SM FEW150
     FM030200 19006KT P6SM VCSH BKN120=



000
FTUS45 KPIH 021120
TAFIDA
TAF
KIDA 021120Z 0212/0312 22011KT P6SM FEW150
     FM021500 22010G20KT P6SM FEW150
     FM022000 23020G32KT P6SM FEW150
     FM030200 19010KT P6SM VCSH BKN100=



000
FTUS45 KPIH 021120
TAFSUN
TAF
KSUN 021120Z 0212/0312 31010KT P6SM FEW200
     FM021800 15010KT P6SM SCT150
     FM022000 20010G20KT P6SM SCT150
     FM030300 30008KT P6SM FEW120
      AMD LTD TO CLD VIS AND WIND TIL 021300=



000
FTUS45 KPIH 021120
TAFPIH
TAF
KPIH 021120Z 0212/0312 18011G20KT P6SM FEW200
     FM021500 21010G20KT P6SM SCT120
     FM022000 23017G30KT P6SM FEW150
     FM030200 20010KT P6SM VCSH BKN100=



000
FTUS45 KPIH 021120
TAFBYI
TAF
KBYI 021120Z 0212/0312 22009KT P6SM FEW200
     FM021800 27011KT P6SM FEW150
     FM030200 19006KT P6SM VCSH BKN120=



000
FTUS45 KPIH 021120
TAFSUN
TAF
KSUN 021120Z 0212/0312 31010KT P6SM FEW200
     FM021800 15010KT P6SM SCT150
     FM022000 20010G20KT P6SM SCT150
     FM030300 30008KT P6SM FEW120
      AMD LTD TO CLD VIS AND WIND TIL 021300=



000
FTUS45 KPIH 021120
TAFIDA
TAF
KIDA 021120Z 0212/0312 22011KT P6SM FEW150
     FM021500 22010G20KT P6SM FEW150
     FM022000 23020G32KT P6SM FEW150
     FM030200 19010KT P6SM VCSH BKN100=



000
FTUS45 KPIH 020520
TAFPIH
TAF
KPIH 020520Z 0206/0306 19011KT P6SM FEW140
     FM021500 22010G20KT P6SM BKN130
     FM022000 23017G27KT P6SM FEW140
     FM030200 20010KT P6SM VCSH BKN130=



000
FTUS45 KPIH 020520
TAFBYI
TAF
KBYI 020520Z 0206/0306 19006KT P6SM FEW140
     FM021800 27011KT P6SM FEW150
     FM030200 19006KT P6SM VCSH BKN140=



000
FTUS45 KPIH 020520
TAFSUN
TAF
KSUN 020520Z 0206/0306 31010KT P6SM FEW130
     FM021700 15010KT P6SM SCT130
     FM022000 20010G20KT P6SM SCT130
     FM030300 30008KT P6SM FEW130
      AMD LTD TO CLD VIS AND WIND TIL 021300=



000
FTUS45 KPIH 020520
TAFIDA
TAF
KIDA 020520Z 0206/0306 17008KT P6SM FEW130
     FM021500 22010G20KT P6SM BKN130
     FM022000 23020G30KT P6SM FEW130
     FM030200 19010KT P6SM VCSH BKN120=



000
FTUS45 KPIH 020520
TAFSUN
TAF
KSUN 020520Z 0206/0306 31010KT P6SM FEW130
     FM021700 15010KT P6SM SCT130
     FM022000 20010G20KT P6SM SCT130
     FM030300 30008KT P6SM FEW130
      AMD LTD TO CLD VIS AND WIND TIL 021300=



000
FTUS45 KPIH 020520
TAFBYI
TAF
KBYI 020520Z 0206/0306 19006KT P6SM FEW140
     FM021800 27011KT P6SM FEW150
     FM030200 19006KT P6SM VCSH BKN140=



000
FTUS45 KPIH 020520
TAFIDA
TAF
KIDA 020520Z 0206/0306 17008KT P6SM FEW130
     FM021500 22010G20KT P6SM BKN130
     FM022000 23020G30KT P6SM FEW130
     FM030200 19010KT P6SM VCSH BKN120=



000
FTUS45 KPIH 020520
TAFPIH
TAF
KPIH 020520Z 0206/0306 19011KT P6SM FEW140
     FM021500 22010G20KT P6SM BKN130
     FM022000 23017G27KT P6SM FEW140
     FM030200 20010KT P6SM VCSH BKN130=



000
FTUS45 KPIH 012320
TAFSUN
TAF
KSUN 012320Z 0200/0224 20010KT P6SM FEW120
     FM020300 31010KT P6SM SCT130
     FM021700 15010KT P6SM SCT130
     FM022000 20010G20KT P6SM BKN120
      AMD LTD TO CLD VIS AND WIND 0205/0213=



000
FTUS45 KPIH 012320
TAFPIH
TAF
KPIH 012320Z 0200/0224 27010KT P6SM SCT140
     FM020200 19011KT P6SM BKN140
     FM021500 22010G20KT P6SM BKN130
     FM022000 23017G27KT P6SM FEW140=



000
FTUS45 KPIH 012320
TAFBYI
TAF
KBYI 012320Z 0200/0224 VRB05KT P6SM BKN140
     FM021800 25008KT P6SM SCT140
     FM022000 27011KT P6SM FEW150=



000
FTUS45 KPIH 012320
TAFIDA
TAF
KIDA 012320Z 0200/0224 21011KT P6SM BKN130
     FM021500 22010G20KT P6SM BKN130
     FM022000 23020G30KT P6SM FEW130=



000
FTUS45 KPIH 011958 AAA
TAFPIH
TAF AMD
KPIH 011958Z 0120/0218 25010KT P6SM SCT140
     FM020200 19012KT P6SM SCT140=



000
FTUS45 KPIH 011724
TAFSUN
TAF
KSUN 011724Z 0118/0218 15008KT P6SM SCT120
     FM012000 20010KT P6SM BKN120
     FM020300 31010KT P6SM SCT130=



000
FTUS45 KPIH 011724
TAFPIH
TAF
KPIH 011724Z 0118/0218 VRB05KT P6SM FEW140
     FM011900 25010G18KT P6SM SCT140
     FM020200 19012KT P6SM SCT140=



000
FTUS45 KPIH 011724
TAFSUN
TAF
KSUN 011724Z 0118/0218 15008KT P6SM SCT120
     FM012000 20010KT P6SM BKN120
     FM020300 31010KT P6SM SCT130=



000
FTUS45 KPIH 011724
TAFBYI
TAF
KBYI 011724Z 0118/0218 VRB05KT P6SM FEW200=



000
FTUS45 KPIH 011724
TAFPIH
TAF
KPIH 011724Z 0118/0218 VRB05KT P6SM FEW140
     FM011900 25010G18KT P6SM SCT140
     FM020200 19012KT P6SM SCT140=



000
FTUS45 KPIH 011724
TAFIDA
TAF
KIDA 011724Z 0118/0218 VRB05KT P6SM FEW130
     FM012000 22013G23KT P6SM SCT130
     FM020100 21010KT P6SM SCT130=



000
FTUS45 KPIH 011724
TAFIDA
TAF
KIDA 011724Z 0118/0218 VRB05KT P6SM FEW130
     FM012000 22013G23KT P6SM SCT130
     FM020100 21010KT P6SM SCT130=



000
FTUS45 KPIH 011724
TAFBYI
TAF
KBYI 011724Z 0118/0218 VRB05KT P6SM FEW200=



000
FTUS45 KPIH 011120
TAFIDA
TAF
KIDA 011120Z 0112/0212 VRB05KT P6SM FEW130
     FM012000 22013G23KT P6SM SCT130
     FM020100 21010KT P6SM SCT130=



000
FTUS45 KPIH 011120
TAFPIH
TAF
KPIH 011120Z 0112/0212 VRB05KT P6SM FEW140
     FM011900 25010G20KT P6SM SCT140
     FM020200 19012KT P6SM SCT140=



000
FTUS45 KPIH 011120
TAFBYI
TAF
KBYI 011120Z 0112/0212 VRB05KT P6SM FEW200=



000
FTUS45 KPIH 011120
TAFBYI
TAF
KBYI 011120Z 0112/0212 VRB05KT P6SM FEW200=



000
FTUS45 KPIH 011120
TAFIDA
TAF
KIDA 011120Z 0112/0212 VRB05KT P6SM FEW130
     FM012000 22013G23KT P6SM SCT130
     FM020100 21010KT P6SM SCT130=



000
FTUS45 KPIH 011120
TAFSUN
TAF
KSUN 011120Z 0112/0212 32009KT P6SM FEW140
     FM011700 15010KT P6SM SCT120
     FM012000 20010KT P6SM BKN120
     FM020300 31010KT P6SM SCT130
      AMD LTD TO CLD VIS AND WIND TIL 011300=



000
FTUS45 KPIH 011120
TAFPIH
TAF
KPIH 011120Z 0112/0212 VRB05KT P6SM FEW140
     FM011900 25010G20KT P6SM SCT140
     FM020200 19012KT P6SM SCT140=



000
FTUS45 KPIH 011120
TAFSUN
TAF
KSUN 011120Z 0112/0212 32009KT P6SM FEW140
     FM011700 15010KT P6SM SCT120
     FM012000 20010KT P6SM BKN120
     FM020300 31010KT P6SM SCT130
      AMD LTD TO CLD VIS AND WIND TIL 011300=



000
FTUS45 KPIH 010520
TAFBYI
TAF
KBYI 010520Z 0106/0206 VRB04KT P6SM FEW200
     FM012000 15007KT P6SM SCT150=



000
FTUS45 KPIH 010520
TAFIDA
TAF
KIDA 010520Z 0106/0206 18006KT P6SM FEW130
     FM012000 23013G23KT P6SM SCT130
     FM020100 21010KT P6SM SCT130=



000
FTUS45 KPIH 010520
TAFSUN
TAF
KSUN 010520Z 0106/0206 32009KT P6SM FEW140
     FM011700 15010KT P6SM SCT120
     FM012000 20010KT P6SM BKN120
     FM020300 31010KT P6SM SCT130
      AMD LTD TO CLD VIS AND WIND TIL 011300=



000
FTUS45 KPIH 010520
TAFPIH
TAF
KPIH 010520Z 0106/0206 17005KT P6SM FEW140
     FM011900 24010G20KT P6SM SCT140
     FM020200 22010KT P6SM SCT140=



000
FTUS45 KPIH 010520
TAFPIH
TAF
KPIH 010520Z 0106/0206 17005KT P6SM FEW140
     FM011900 24010G20KT P6SM SCT140
     FM020200 22010KT P6SM SCT140=



000
FTUS45 KPIH 010520
TAFBYI
TAF
KBYI 010520Z 0106/0206 VRB04KT P6SM FEW200
     FM012000 15007KT P6SM SCT150=



000
FTUS45 KPIH 010520
TAFIDA
TAF
KIDA 010520Z 0106/0206 18006KT P6SM FEW130
     FM012000 23013G23KT P6SM SCT130
     FM020100 21010KT P6SM SCT130=



000
FTUS45 KPIH 010520
TAFSUN
TAF
KSUN 010520Z 0106/0206 32009KT P6SM FEW140
     FM011700 15010KT P6SM SCT120
     FM012000 20010KT P6SM BKN120
     FM020300 31010KT P6SM SCT130
      AMD LTD TO CLD VIS AND WIND TIL 011300=



    US Dept of Commerce
    National Oceanic and Atmospheric Administration
    National Weather Service
    1325 East West Highway
    Silver Spring, MD 20910
    Page Author: NWS Internet Services Team
Disclaimer
Information Quality
Credits
Glossary
Privacy Policy
Freedom of Information Act (FOIA)
About Us
Career Opportunities